METAR Reports From Nearby Airports

 

KLUD - Decatur, Texas, USA
Distance from Wildwood: OSO 5mi, 8km
Uppdaterad: Mar 31, 2020 4:55pm
Mostly Cloudy
Mostly Cloudy
 Vind från NNO
Vind: NNO 5 mph , 7 km/h
Temperatur: 66°F , 19°C
Daggpunkt: 46°F , 8°C
Luftfuktighet: 49%
Barometer: 30.03 inHg , 1016.9 hPa
Clouds: Mostly Cloudy
Visibility: 10 miles , 16 km
Cloud details: Mostly Cloudy 4300 ft
2020/03/31 21:55 KLUD 312155Z AUTO 03004KT 10SM BKN043 19/08 A3003 RMK AO2 T01870082
KXBP - Bridgeport, Texas, USA
Distance from Wildwood: VSV 11mi, 18km
Uppdaterad: Mar 31, 2020 4:55pm
Partly Cloudy
Partly Cloudy
 Vind från N
Vind: N 3 mph , 6 km/h
Temperatur: 66°F , 19°C
Daggpunkt: 48°F , 9°C
Luftfuktighet: 52%
Barometer: 30.05 inHg , 1017.6 hPa
Clouds: Partly Cloudy
Visibility: 10 miles , 16 km
Cloud details: Partly Cloudy 4200 ft
2020/03/31 21:55 KXBP 312155Z AUTO 01003KT 10SM SCT042 19/09 A3005 RMK AO2 T01910088
 
K0F2 - Bowie, Texas, USA
Distance from Wildwood: NNV 24mi, 39km
Uppdaterad: Mar 31, 2020 4:55pm
Partly Cloudy
Partly Cloudy
 Vind från calm
Vind: Vindstilla
Temperatur: 68°F , 20°C
Daggpunkt: 48°F , 9°C
Luftfuktighet: 49%
Barometer: 30.03 inHg , 1016.9 hPa
Clouds: Partly Cloudy
Visibility: 10 miles , 16 km
Cloud details: Partly Cloudy 3900 ft
2020/03/31 21:55 K0F2 312155Z AUTO 00000KT 10SM SCT039 20/09 A3003 RMK AO2 T01960088
KDTO - Denton, Texas, USA
Distance from Wildwood: O 27mi, 44km
Uppdaterad: Mar 31, 2020 4:53pm
Mostly Cloudy
Mostly Cloudy
 Vind från NV
Vind: NV 8 mph , 13 km/h
Temperatur: 66°F , 19°C
Daggpunkt: 48°F , 9°C
Luftfuktighet: 52%
Barometer: 30.03 inHg , 1016.9 hPa
Clouds: Mostly Cloudy
Visibility: 10 miles , 16 km
Cloud details: Mostly Cloudy 4200 ft
2020/03/31 21:53 KDTO 312153Z 32007KT 10SM BKN042 19/09 A3003 RMK AO2 SLP166 T01940094
 
KAFW - Ft Worth/Allianc, Texas, USA
Distance from Wildwood: SO 29mi, 46km
Uppdaterad: Mar 31, 2020 4:53pm
Partly Cloudy
Partly Cloudy
 Vind från NNV
Vind: NNV 9 mph , 15 km/h
Temperatur: 66°F , 19°C
Daggpunkt: 48°F , 9°C
Luftfuktighet: 52%
Barometer: 30.03 inHg , 1016.9 hPa
Clouds: Partly Cloudy
Visibility: 10 miles , 16 km
Cloud details: Partly Cloudy 4100 ft
Partly Cloudy 25000 ft
2020/03/31 21:53 KAFW 312153Z 33008KT 10SM SCT041 SCT250 19/09 A3003 RMK AO2 SLP166 T01890089
KFTW - Fort Worth, Texas, USA
Distance from Wildwood: SSO 34mi, 55km
Uppdaterad: Mar 31, 2020 4:53pm
Klart
Klart
 Vind från N
Vind: N 8 mph , 13 km/h, Vindby: 18 mph , 30 km/h
Temperatur: 64°F , 18°C
Daggpunkt: 48°F , 9°C
Luftfuktighet: 56%
Barometer: 30.03 inHg , 1016.9 hPa
Clouds: Klart
Visibility: 10 miles , 16 km
2020/03/31 21:53 KFTW 312153Z 35007G16KT 310V010 10SM CLR 18/09 A3003 RMK AO2 SLP165 T01780094
 
KNFW - Fort Worth Nas, Texas, USA
Distance from Wildwood: SSO 36mi, 58km
Uppdaterad: Mar 31, 2020 4:52pm
Mostly Cloudy
Mostly Cloudy
 Vind från N
Vind: N 8 mph , 13 km/h
Temperatur: 68°F , 20°C
Daggpunkt: 48°F , 9°C
Luftfuktighet: 49%
Barometer: 30.04 inHg , 1017.3 hPa
Clouds: Mostly Cloudy
Visibility: 10 miles , 16 km
Cloud details: Partly Cloudy 4500 ft
Mostly Cloudy 25000 ft
2020/03/31 21:52 KNFW 312152Z 36007KT 10SM SCT045 BKN250 20/09 A3004 RMK AO2 SLP154 T02000089 VISNO N $
KGLE - Gainesville, Texas, USA
Distance from Wildwood: NO 38mi, 61km
Uppdaterad: Mar 31, 2020 4:55pm
Mostly Cloudy
Mostly Cloudy
 Vind från calm
Vind: Vindstilla
Temperatur: 66°F , 19°C
Daggpunkt: 46°F , 8°C
Luftfuktighet: 49%
Barometer: 30.05 inHg , 1017.6 hPa
Clouds: Mostly Cloudy
Visibility: 10 miles , 16 km
Cloud details: Mostly Cloudy 4400 ft
2020/03/31 21:55 KGLE 312155Z AUTO 00000KT 10SM BKN044 19/08 A3005 RMK AO2 T01850077 PWINO
 
KMWL - Mineral Wells, Texas, USA
Distance from Wildwood: SV 41mi, 65km
Uppdaterad: Mar 31, 2020 4:53pm
Few Clouds
Few Clouds
 Vind från NNV
Vind: NNV 8 mph , 13 km/h
Temperatur: 68°F , 20°C
Daggpunkt: 48°F , 9°C
Luftfuktighet: 49%
Barometer: 30.02 inHg , 1016.6 hPa
Clouds: Few Clouds
Visibility: 10 miles , 16 km
Cloud details: Few Clouds 4100 ft
2020/03/31 21:53 KMWL 312153Z AUTO 34007KT 10SM FEW041 20/09 A3002 RMK AO2 SLP160 T02000089
KDFW - Dallas/Ft Worth, Texas, USA
Distance from Wildwood: OSO 45mi, 73km
Uppdaterad: Mar 31, 2020 4:53pm
Partly Cloudy
Partly Cloudy
 Vind från NNV
Vind: NNV 8 mph , 13 km/h
Temperatur: 64°F , 18°C
Daggpunkt: 46°F , 8°C
Luftfuktighet: 52%
Barometer: 30.02 inHg , 1016.6 hPa
Clouds: Partly Cloudy
Visibility: 10 miles , 16 km
Cloud details: Partly Cloudy 4400 ft
2020/03/31 21:53 KDFW 312153Z 34007KT 10SM SCT044 18/08 A3002 RMK AO2 SLP161 T01780083